sensor_id;sensor_type;location;lat;lon;timestamp;P1;durP1;ratioP1;P2;durP2;ratioP2
55706;SDS011;41608;45.384;20.394;2022-07-24T00:02:10;18.25;;;8.30;;
55706;SDS011;41608;45.384;20.394;2022-07-24T00:04:36;13.45;;;6.85;;
55706;SDS011;41608;45.384;20.394;2022-07-24T00:07:02;17.40;;;7.70;;
55706;SDS011;41608;45.384;20.394;2022-07-24T00:09:28;12.27;;;7.70;;
55706;SDS011;41608;45.384;20.394;2022-07-24T00:11:54;15.15;;;7.95;;
55706;SDS011;41608;45.384;20.394;2022-07-24T00:14:23;17.08;;;7.43;;
55706;SDS011;41608;45.384;20.394;2022-07-24T00:16:50;23.38;;;8.82;;
55706;SDS011;41608;45.384;20.394;2022-07-24T00:19:16;17.25;;;8.43;;
55706;SDS011;41608;45.384;20.394;2022-07-24T00:21:42;18.38;;;9.77;;
55706;SDS011;41608;45.384;20.394;2022-07-24T00:24:08;21.55;;;9.45;;
55706;SDS011;41608;45.384;20.394;2022-07-24T00:26:34;24.73;;;10.13;;
55706;SDS011;41608;45.384;20.394;2022-07-24T00:29:00;18.25;;;10.23;;
55706;SDS011;41608;45.384;20.394;2022-07-24T00:31:27;17.05;;;9.57;;
55706;SDS011;41608;45.384;20.394;2022-07-24T00:33:53;20.00;;;10.55;;
55706;SDS011;41608;45.384;20.394;2022-07-24T00:36:19;19.60;;;9.93;;
55706;SDS011;41608;45.384;20.394;2022-07-24T00:38:45;13.32;;;8.68;;
55706;SDS011;41608;45.384;20.394;2022-07-24T00:41:11;16.42;;;10.68;;
55706;SDS011;41608;45.384;20.394;2022-07-24T00:46:22;16.00;;;8.85;;
55706;SDS011;41608;45.384;20.394;2022-07-24T00:48:48;18.17;;;9.57;;
55706;SDS011;41608;45.384;20.394;2022-07-24T00:51:14;19.58;;;9.70;;
55706;SDS011;41608;45.384;20.394;2022-07-24T00:53:40;25.05;;;11.00;;
55706;SDS011;41608;45.384;20.394;2022-07-24T00:56:06;23.63;;;10.13;;
55706;SDS011;41608;45.384;20.394;2022-07-24T00:58:34;23.23;;;10.15;;
55706;SDS011;41608;45.384;20.394;2022-07-24T01:01:01;21.95;;;11.60;;
55706;SDS011;41608;45.384;20.394;2022-07-24T01:03:27;18.95;;;10.40;;
55706;SDS011;41608;45.384;20.394;2022-07-24T01:05:53;19.00;;;9.77;;
55706;SDS011;41608;45.384;20.394;2022-07-24T01:08:19;19.17;;;10.20;;
55706;SDS011;41608;45.384;20.394;2022-07-24T01:10:45;22.58;;;10.68;;
55706;SDS011;41608;45.384;20.394;2022-07-24T01:13:12;18.27;;;10.88;;
55706;SDS011;41608;45.384;20.394;2022-07-24T01:15:38;16.63;;;10.55;;
55706;SDS011;41608;45.384;20.394;2022-07-24T01:18:05;20.60;;;9.60;;
55706;SDS011;41608;45.384;20.394;2022-07-24T01:20:34;24.13;;;11.27;;
55706;SDS011;41608;45.384;20.394;2022-07-24T01:23:00;21.00;;;10.10;;
55706;SDS011;41608;45.384;20.394;2022-07-24T01:25:27;20.92;;;11.10;;
55706;SDS011;41608;45.384;20.394;2022-07-24T01:27:53;14.48;;;10.15;;
55706;SDS011;41608;45.384;20.394;2022-07-24T01:30:19;20.88;;;11.40;;
55706;SDS011;41608;45.384;20.394;2022-07-24T01:32:45;24.35;;;10.38;;
55706;SDS011;41608;45.384;20.394;2022-07-24T01:35:11;17.88;;;10.75;;
55706;SDS011;41608;45.384;20.394;2022-07-24T01:37:37;26.52;;;10.70;;
55706;SDS011;41608;45.384;20.394;2022-07-24T01:40:03;18.75;;;9.88;;
55706;SDS011;41608;45.384;20.394;2022-07-24T01:42:30;13.63;;;8.30;;
55706;SDS011;41608;45.384;20.394;2022-07-24T01:44:56;22.25;;;9.13;;
55706;SDS011;41608;45.384;20.394;2022-07-24T01:47:22;17.85;;;9.60;;
55706;SDS011;41608;45.384;20.394;2022-07-24T01:49:48;26.05;;;9.10;;
55706;SDS011;41608;45.384;20.394;2022-07-24T01:52:14;30.20;;;10.35;;
55706;SDS011;41608;45.384;20.394;2022-07-24T01:54:40;25.48;;;10.60;;
55706;SDS011;41608;45.384;20.394;2022-07-24T01:57:06;23.88;;;10.43;;
55706;SDS011;41608;45.384;20.394;2022-07-24T01:59:32;19.00;;;10.18;;
55706;SDS011;41608;45.384;20.394;2022-07-24T02:01:58;31.00;;;11.50;;
55706;SDS011;41608;45.384;20.394;2022-07-24T02:04:24;14.15;;;9.50;;
55706;SDS011;41608;45.384;20.394;2022-07-24T02:06:50;22.67;;;10.68;;
55706;SDS011;41608;45.384;20.394;2022-07-24T02:09:18;19.10;;;11.88;;
55706;SDS011;41608;45.384;20.394;2022-07-24T02:11:45;14.60;;;10.13;;
55706;SDS011;41608;45.384;20.394;2022-07-24T02:14:11;15.73;;;9.52;;
55706;SDS011;41608;45.384;20.394;2022-07-24T02:16:37;17.70;;;10.00;;
55706;SDS011;41608;45.384;20.394;2022-07-24T02:19:03;24.52;;;11.50;;
55706;SDS011;41608;45.384;20.394;2022-07-24T02:21:29;16.13;;;9.65;;
55706;SDS011;41608;45.384;20.394;2022-07-24T02:23:55;19.83;;;10.90;;
55706;SDS011;41608;45.384;20.394;2022-07-24T02:26:22;19.50;;;10.10;;
55706;SDS011;41608;45.384;20.394;2022-07-24T02:28:48;19.00;;;8.90;;
55706;SDS011;41608;45.384;20.394;2022-07-24T02:31:14;15.13;;;12.18;;
55706;SDS011;41608;45.384;20.394;2022-07-24T02:33:42;19.48;;;10.93;;
55706;SDS011;41608;45.384;20.394;2022-07-24T02:36:08;16.23;;;10.40;;
55706;SDS011;41608;45.384;20.394;2022-07-24T02:38:34;11.65;;;7.88;;
55706;SDS011;41608;45.384;20.394;2022-07-24T02:41:01;14.27;;;9.75;;
55706;SDS011;41608;45.384;20.394;2022-07-24T02:43:27;12.38;;;8.48;;
55706;SDS011;41608;45.384;20.394;2022-07-24T02:45:53;15.02;;;8.80;;
55706;SDS011;41608;45.384;20.394;2022-07-24T02:48:21;13.95;;;8.20;;
55706;SDS011;41608;45.384;20.394;2022-07-24T02:50:47;14.05;;;8.52;;
55706;SDS011;41608;45.384;20.394;2022-07-24T02:53:16;16.23;;;8.52;;
55706;SDS011;41608;45.384;20.394;2022-07-24T02:55:42;12.63;;;7.85;;
55706;SDS011;41608;45.384;20.394;2022-07-24T02:58:09;14.63;;;8.27;;
55706;SDS011;41608;45.384;20.394;2022-07-24T03:00:35;12.85;;;7.03;;
55706;SDS011;41608;45.384;20.394;2022-07-24T03:03:02;13.98;;;5.93;;
55706;SDS011;41608;45.384;20.394;2022-07-24T03:05:28;12.98;;;8.63;;
55706;SDS011;41608;45.384;20.394;2022-07-24T03:07:54;15.50;;;8.30;;
55706;SDS011;41608;45.384;20.394;2022-07-24T03:10:20;15.43;;;9.63;;
55706;SDS011;41608;45.384;20.394;2022-07-24T03:12:47;11.82;;;8.55;;
55706;SDS011;41608;45.384;20.394;2022-07-24T03:15:14;12.20;;;7.95;;
55706;SDS011;41608;45.384;20.394;2022-07-24T03:17:50;11.82;;;7.18;;
55706;SDS011;41608;45.384;20.394;2022-07-24T03:20:16;10.07;;;6.00;;
55706;SDS011;41608;45.384;20.394;2022-07-24T03:22:43;15.35;;;8.23;;
55706;SDS011;41608;45.384;20.394;2022-07-24T03:25:12;17.75;;;8.25;;
55706;SDS011;41608;45.384;20.394;2022-07-24T03:27:38;12.45;;;7.32;;
55706;SDS011;41608;45.384;20.394;2022-07-24T03:30:05;13.30;;;9.35;;
55706;SDS011;41608;45.384;20.394;2022-07-24T03:32:32;21.30;;;9.45;;
55706;SDS011;41608;45.384;20.394;2022-07-24T03:34:58;13.32;;;9.18;;
55706;SDS011;41608;45.384;20.394;2022-07-24T03:37:24;13.13;;;9.18;;
55706;SDS011;41608;45.384;20.394;2022-07-24T03:39:50;10.90;;;6.85;;
55706;SDS011;41608;45.384;20.394;2022-07-24T03:42:16;18.08;;;9.15;;
55706;SDS011;41608;45.384;20.394;2022-07-24T03:44:44;11.63;;;8.40;;
55706;SDS011;41608;45.384;20.394;2022-07-24T03:47:11;13.82;;;8.57;;
55706;SDS011;41608;45.384;20.394;2022-07-24T03:49:37;11.40;;;10.10;;
55706;SDS011;41608;45.384;20.394;2022-07-24T03:52:03;13.38;;;9.48;;
55706;SDS011;41608;45.384;20.394;2022-07-24T03:54:29;20.17;;;11.18;;
55706;SDS011;41608;45.384;20.394;2022-07-24T03:56:55;18.85;;;10.02;;
55706;SDS011;41608;45.384;20.394;2022-07-24T03:59:21;14.55;;;9.15;;
55706;SDS011;41608;45.384;20.394;2022-07-24T04:01:48;14.85;;;8.88;;
55706;SDS011;41608;45.384;20.394;2022-07-24T04:04:14;12.82;;;8.93;;
55706;SDS011;41608;45.384;20.394;2022-07-24T04:06:40;20.23;;;9.68;;
55706;SDS011;41608;45.384;20.394;2022-07-24T04:09:06;14.88;;;9.75;;
55706;SDS011;41608;45.384;20.394;2022-07-24T04:11:32;16.48;;;8.55;;
55706;SDS011;41608;45.384;20.394;2022-07-24T04:13:58;16.20;;;8.85;;
55706;SDS011;41608;45.384;20.394;2022-07-24T04:16:25;18.05;;;9.30;;
55706;SDS011;41608;45.384;20.394;2022-07-24T04:18:51;18.80;;;9.63;;
55706;SDS011;41608;45.384;20.394;2022-07-24T04:21:17;11.07;;;8.43;;
55706;SDS011;41608;45.384;20.394;2022-07-24T04:23:43;12.45;;;8.57;;
55706;SDS011;41608;45.384;20.394;2022-07-24T04:26:09;12.85;;;9.30;;
55706;SDS011;41608;45.384;20.394;2022-07-24T04:28:35;18.52;;;9.07;;
55706;SDS011;41608;45.384;20.394;2022-07-24T04:31:02;17.73;;;8.70;;
55706;SDS011;41608;45.384;20.394;2022-07-24T04:33:28;13.70;;;8.45;;
55706;SDS011;41608;45.384;20.394;2022-07-24T04:35:54;16.10;;;9.55;;
55706;SDS011;41608;45.384;20.394;2022-07-24T04:38:20;16.27;;;8.80;;
55706;SDS011;41608;45.384;20.394;2022-07-24T04:40:46;14.48;;;9.15;;
55706;SDS011;41608;45.384;20.394;2022-07-24T04:43:12;14.20;;;7.82;;
55706;SDS011;41608;45.384;20.394;2022-07-24T04:45:38;16.60;;;8.65;;
55706;SDS011;41608;45.384;20.394;2022-07-24T04:48:04;18.55;;;9.27;;
55706;SDS011;41608;45.384;20.394;2022-07-24T04:50:31;17.67;;;8.70;;
55706;SDS011;41608;45.384;20.394;2022-07-24T04:52:57;17.90;;;9.18;;
55706;SDS011;41608;45.384;20.394;2022-07-24T04:55:23;20.15;;;8.70;;
55706;SDS011;41608;45.384;20.394;2022-07-24T04:57:49;12.80;;;8.68;;
55706;SDS011;41608;45.384;20.394;2022-07-24T05:00:15;17.02;;;8.60;;
55706;SDS011;41608;45.384;20.394;2022-07-24T05:02:41;19.05;;;9.00;;
55706;SDS011;41608;45.384;20.394;2022-07-24T05:05:07;15.20;;;9.48;;
55706;SDS011;41608;45.384;20.394;2022-07-24T05:07:33;20.30;;;8.70;;
55706;SDS011;41608;45.384;20.394;2022-07-24T05:09:59;16.20;;;8.57;;
55706;SDS011;41608;45.384;20.394;2022-07-24T05:12:26;18.55;;;9.20;;
55706;SDS011;41608;45.384;20.394;2022-07-24T05:14:52;14.75;;;8.88;;
55706;SDS011;41608;45.384;20.394;2022-07-24T05:17:18;15.07;;;8.00;;
55706;SDS011;41608;45.384;20.394;2022-07-24T05:19:44;21.80;;;10.40;;
55706;SDS011;41608;45.384;20.394;2022-07-24T05:22:10;14.00;;;8.45;;
55706;SDS011;41608;45.384;20.394;2022-07-24T05:24:36;20.55;;;9.45;;
55706;SDS011;41608;45.384;20.394;2022-07-24T05:27:02;14.93;;;9.73;;
55706;SDS011;41608;45.384;20.394;2022-07-24T05:29:28;16.48;;;8.02;;
55706;SDS011;41608;45.384;20.394;2022-07-24T05:31:55;17.73;;;9.18;;
55706;SDS011;41608;45.384;20.394;2022-07-24T05:34:21;17.67;;;10.10;;
55706;SDS011;41608;45.384;20.394;2022-07-24T05:36:47;18.55;;;9.13;;
55706;SDS011;41608;45.384;20.394;2022-07-24T05:39:13;14.90;;;9.10;;
55706;SDS011;41608;45.384;20.394;2022-07-24T05:41:42;13.68;;;8.73;;
55706;SDS011;41608;45.384;20.394;2022-07-24T05:44:08;17.38;;;9.00;;
55706;SDS011;41608;45.384;20.394;2022-07-24T05:46:34;13.48;;;8.60;;
55706;SDS011;41608;45.384;20.394;2022-07-24T05:49:00;18.70;;;10.05;;
55706;SDS011;41608;45.384;20.394;2022-07-24T05:51:26;13.75;;;7.65;;
55706;SDS011;41608;45.384;20.394;2022-07-24T05:53:52;17.92;;;8.40;;
55706;SDS011;41608;45.384;20.394;2022-07-24T05:56:18;12.65;;;8.13;;
55706;SDS011;41608;45.384;20.394;2022-07-24T05:58:45;17.15;;;8.38;;
55706;SDS011;41608;45.384;20.394;2022-07-24T06:01:11;15.82;;;8.63;;
55706;SDS011;41608;45.384;20.394;2022-07-24T06:03:37;18.23;;;7.32;;
55706;SDS011;41608;45.384;20.394;2022-07-24T06:06:03;15.13;;;8.77;;
55706;SDS011;41608;45.384;20.394;2022-07-24T06:08:30;15.52;;;8.73;;
55706;SDS011;41608;45.384;20.394;2022-07-24T06:10:56;14.93;;;7.82;;
55706;SDS011;41608;45.384;20.394;2022-07-24T06:13:22;12.45;;;6.97;;
55706;SDS011;41608;45.384;20.394;2022-07-24T06:15:48;10.63;;;7.80;;
55706;SDS011;41608;45.384;20.394;2022-07-24T06:18:14;15.95;;;7.60;;
55706;SDS011;41608;45.384;20.394;2022-07-24T06:20:40;15.50;;;9.10;;
55706;SDS011;41608;45.384;20.394;2022-07-24T06:23:06;13.20;;;7.93;;
55706;SDS011;41608;45.384;20.394;2022-07-24T06:25:32;10.75;;;7.70;;
55706;SDS011;41608;45.384;20.394;2022-07-24T06:27:58;11.07;;;7.82;;
55706;SDS011;41608;45.384;20.394;2022-07-24T06:30:25;8.70;;;6.78;;
55706;SDS011;41608;45.384;20.394;2022-07-24T06:32:53;14.43;;;7.57;;
55706;SDS011;41608;45.384;20.394;2022-07-24T06:35:19;14.43;;;7.25;;
55706;SDS011;41608;45.384;20.394;2022-07-24T06:37:45;15.05;;;7.68;;
55706;SDS011;41608;45.384;20.394;2022-07-24T06:40:12;11.40;;;7.75;;
55706;SDS011;41608;45.384;20.394;2022-07-24T06:42:38;11.95;;;9.07;;
55706;SDS011;41608;45.384;20.394;2022-07-24T06:45:04;11.82;;;7.13;;
55706;SDS011;41608;45.384;20.394;2022-07-24T06:47:30;13.43;;;7.30;;
55706;SDS011;41608;45.384;20.394;2022-07-24T06:49:57;9.85;;;7.20;;
55706;SDS011;41608;45.384;20.394;2022-07-24T06:52:25;10.57;;;7.03;;
55706;SDS011;41608;45.384;20.394;2022-07-24T06:54:51;12.35;;;7.05;;
55706;SDS011;41608;45.384;20.394;2022-07-24T06:57:17;14.45;;;7.00;;
55706;SDS011;41608;45.384;20.394;2022-07-24T06:59:43;12.27;;;6.75;;
55706;SDS011;41608;45.384;20.394;2022-07-24T07:02:11;11.93;;;7.15;;
55706;SDS011;41608;45.384;20.394;2022-07-24T07:04:38;12.63;;;6.60;;
55706;SDS011;41608;45.384;20.394;2022-07-24T07:07:04;11.50;;;5.93;;
55706;SDS011;41608;45.384;20.394;2022-07-24T07:09:34;10.18;;;7.45;;
55706;SDS011;41608;45.384;20.394;2022-07-24T07:12:03;8.30;;;6.18;;
55706;SDS011;41608;45.384;20.394;2022-07-24T07:14:29;10.80;;;6.38;;
55706;SDS011;41608;45.384;20.394;2022-07-24T07:16:55;10.02;;;6.43;;
55706;SDS011;41608;45.384;20.394;2022-07-24T07:19:21;9.63;;;6.43;;
55706;SDS011;41608;45.384;20.394;2022-07-24T07:21:47;9.98;;;6.88;;
55706;SDS011;41608;45.384;20.394;2022-07-24T07:24:14;11.40;;;7.15;;
55706;SDS011;41608;45.384;20.394;2022-07-24T07:26:40;16.30;;;6.78;;
55706;SDS011;41608;45.384;20.394;2022-07-24T07:29:06;10.00;;;7.95;;
55706;SDS011;41608;45.384;20.394;2022-07-24T07:31:32;12.02;;;7.65;;
55706;SDS011;41608;45.384;20.394;2022-07-24T07:33:58;13.80;;;8.10;;
55706;SDS011;41608;45.384;20.394;2022-07-24T07:36:24;11.35;;;7.72;;
55706;SDS011;41608;45.384;20.394;2022-07-24T07:38:50;10.77;;;6.82;;
55706;SDS011;41608;45.384;20.394;2022-07-24T07:41:17;13.35;;;8.65;;
55706;SDS011;41608;45.384;20.394;2022-07-24T07:43:44;12.20;;;8.88;;
55706;SDS011;41608;45.384;20.394;2022-07-24T07:46:12;12.27;;;8.05;;
55706;SDS011;41608;45.384;20.394;2022-07-24T07:48:38;11.88;;;8.32;;
55706;SDS011;41608;45.384;20.394;2022-07-24T07:51:06;14.55;;;9.27;;
55706;SDS011;41608;45.384;20.394;2022-07-24T07:53:32;12.00;;;8.35;;
55706;SDS011;41608;45.384;20.394;2022-07-24T07:55:58;10.77;;;8.43;;
55706;SDS011;41608;45.384;20.394;2022-07-24T07:58:24;11.98;;;8.50;;
55706;SDS011;41608;45.384;20.394;2022-07-24T08:00:51;12.23;;;9.30;;
55706;SDS011;41608;45.384;20.394;2022-07-24T08:03:18;10.45;;;8.25;;
55706;SDS011;41608;45.384;20.394;2022-07-24T08:05:44;15.18;;;8.77;;
55706;SDS011;41608;45.384;20.394;2022-07-24T08:08:10;14.70;;;8.68;;
55706;SDS011;41608;45.384;20.394;2022-07-24T08:10:36;9.52;;;8.25;;
55706;SDS011;41608;45.384;20.394;2022-07-24T08:13:03;14.57;;;8.98;;
55706;SDS011;41608;45.384;20.394;2022-07-24T08:15:29;11.30;;;8.02;;
55706;SDS011;41608;45.384;20.394;2022-07-24T08:17:57;14.45;;;8.25;;
55706;SDS011;41608;45.384;20.394;2022-07-24T08:20:24;10.35;;;7.38;;
55706;SDS011;41608;45.384;20.394;2022-07-24T08:22:51;14.70;;;8.35;;
55706;SDS011;41608;45.384;20.394;2022-07-24T08:25:17;10.63;;;8.48;;
55706;SDS011;41608;45.384;20.394;2022-07-24T08:27:43;13.65;;;7.93;;
55706;SDS011;41608;45.384;20.394;2022-07-24T08:30:10;11.68;;;7.85;;
55706;SDS011;41608;45.384;20.394;2022-07-24T08:32:36;14.82;;;7.78;;
55706;SDS011;41608;45.384;20.394;2022-07-24T08:35:06;12.32;;;9.02;;
55706;SDS011;41608;45.384;20.394;2022-07-24T08:37:36;12.52;;;8.45;;
55706;SDS011;41608;45.384;20.394;2022-07-24T08:40:02;14.48;;;8.15;;
55706;SDS011;41608;45.384;20.394;2022-07-24T08:42:29;10.88;;;8.45;;
55706;SDS011;41608;45.384;20.394;2022-07-24T08:44:55;11.18;;;8.63;;
55706;SDS011;41608;45.384;20.394;2022-07-24T08:47:21;12.93;;;7.38;;
55706;SDS011;41608;45.384;20.394;2022-07-24T08:49:48;10.57;;;7.82;;
55706;SDS011;41608;45.384;20.394;2022-07-24T08:52:18;8.77;;;7.40;;
55706;SDS011;41608;45.384;20.394;2022-07-24T08:54:46;12.13;;;6.90;;
55706;SDS011;41608;45.384;20.394;2022-07-24T08:57:13;9.18;;;7.47;;
55706;SDS011;41608;45.384;20.394;2022-07-24T08:59:39;11.23;;;7.00;;
55706;SDS011;41608;45.384;20.394;2022-07-24T09:02:05;11.43;;;5.43;;
55706;SDS011;41608;45.384;20.394;2022-07-24T09:04:38;11.30;;;7.72;;
55706;SDS011;41608;45.384;20.394;2022-07-24T09:07:12;9.23;;;6.70;;
55706;SDS011;41608;45.384;20.394;2022-07-24T09:09:38;5.78;;;5.05;;
55706;SDS011;41608;45.384;20.394;2022-07-24T09:12:15;11.10;;;6.20;;
55706;SDS011;41608;45.384;20.394;2022-07-24T09:14:46;9.15;;;6.45;;
55706;SDS011;41608;45.384;20.394;2022-07-24T09:17:13;8.10;;;6.75;;
55706;SDS011;41608;45.384;20.394;2022-07-24T09:19:53;9.57;;;7.30;;
55706;SDS011;41608;45.384;20.394;2022-07-24T09:22:25;9.15;;;6.35;;
55706;SDS011;41608;45.384;20.394;2022-07-24T09:25:05;12.85;;;8.40;;
55706;SDS011;41608;45.384;20.394;2022-07-24T09:27:33;15.00;;;8.50;;
55706;SDS011;41608;45.384;20.394;2022-07-24T09:29:59;11.40;;;8.27;;
55706;SDS011;41608;45.384;20.394;2022-07-24T09:32:25;9.02;;;8.13;;
55706;SDS011;41608;45.384;20.394;2022-07-24T09:34:52;11.10;;;6.30;;
55706;SDS011;41608;45.384;20.394;2022-07-24T09:37:19;7.35;;;5.85;;
55706;SDS011;41608;45.384;20.394;2022-07-24T09:39:45;13.13;;;8.63;;
55706;SDS011;41608;45.384;20.394;2022-07-24T09:42:11;9.90;;;6.53;;
55706;SDS011;41608;45.384;20.394;2022-07-24T09:44:38;11.23;;;5.93;;
55706;SDS011;41608;45.384;20.394;2022-07-24T09:47:08;8.10;;;5.70;;
55706;SDS011;41608;45.384;20.394;2022-07-24T09:49:35;13.15;;;6.53;;
55706;SDS011;41608;45.384;20.394;2022-07-24T09:52:08;7.72;;;5.18;;
55706;SDS011;41608;45.384;20.394;2022-07-24T09:54:36;8.35;;;5.68;;
55706;SDS011;41608;45.384;20.394;2022-07-24T09:59:43;8.60;;;5.43;;
55706;SDS011;41608;45.384;20.394;2022-07-24T10:02:12;8.10;;;6.45;;
55706;SDS011;41608;45.384;20.394;2022-07-24T10:04:42;10.32;;;6.57;;
55706;SDS011;41608;45.384;20.394;2022-07-24T10:07:12;8.23;;;5.68;;
55706;SDS011;41608;45.384;20.394;2022-07-24T10:09:43;10.10;;;5.63;;
55706;SDS011;41608;45.384;20.394;2022-07-24T10:12:14;7.57;;;5.43;;
55706;SDS011;41608;45.384;20.394;2022-07-24T10:14:42;7.65;;;5.75;;
55706;SDS011;41608;45.384;20.394;2022-07-24T10:17:09;6.57;;;5.47;;
55706;SDS011;41608;45.384;20.394;2022-07-24T10:19:40;6.80;;;5.30;;
55706;SDS011;41608;45.384;20.394;2022-07-24T10:22:08;8.85;;;5.95;;
55706;SDS011;41608;45.384;20.394;2022-07-24T10:25:18;9.70;;;5.60;;
55706;SDS011;41608;45.384;20.394;2022-07-24T10:27:26;6.70;;;5.53;;
55706;SDS011;41608;45.384;20.394;2022-07-24T10:29:54;8.50;;;6.22;;
55706;SDS011;41608;45.384;20.394;2022-07-24T10:32:20;8.43;;;5.25;;
55706;SDS011;41608;45.384;20.394;2022-07-24T10:35:08;7.43;;;5.53;;
55706;SDS011;41608;45.384;20.394;2022-07-24T10:37:42;8.18;;;4.93;;
55706;SDS011;41608;45.384;20.394;2022-07-24T10:45:19;6.97;;;5.63;;
55706;SDS011;41608;45.384;20.394;2022-07-24T10:47:47;6.97;;;5.50;;
55706;SDS011;41608;45.384;20.394;2022-07-24T10:50:13;9.38;;;6.10;;
55706;SDS011;41608;45.384;20.394;2022-07-24T10:52:40;9.45;;;6.38;;
55706;SDS011;41608;45.384;20.394;2022-07-24T10:55:19;8.77;;;6.07;;
55706;SDS011;41608;45.384;20.394;2022-07-24T10:57:56;9.57;;;5.93;;
55706;SDS011;41608;45.384;20.394;2022-07-24T11:00:33;8.98;;;5.75;;
55706;SDS011;41608;45.384;20.394;2022-07-24T11:05:26;7.65;;;5.55;;
55706;SDS011;41608;45.384;20.394;2022-07-24T11:13:10;7.80;;;6.15;;
55706;SDS011;41608;45.384;20.394;2022-07-24T11:18:40;8.13;;;4.87;;
55706;SDS011;41608;45.384;20.394;2022-07-24T11:21:06;9.68;;;5.97;;
55706;SDS011;41608;45.384;20.394;2022-07-24T11:23:32;7.22;;;6.28;;
55706;SDS011;41608;45.384;20.394;2022-07-24T11:31:31;7.22;;;5.38;;
55706;SDS011;41608;45.384;20.394;2022-07-24T11:33:58;11.35;;;6.15;;
55706;SDS011;41608;45.384;20.394;2022-07-24T11:36:25;6.97;;;5.68;;
55706;SDS011;41608;45.384;20.394;2022-07-24T11:38:51;7.22;;;5.43;;
55706;SDS011;41608;45.384;20.394;2022-07-24T11:41:18;7.35;;;5.05;;
55706;SDS011;41608;45.384;20.394;2022-07-24T11:43:51;7.68;;;5.60;;
55706;SDS011;41608;45.384;20.394;2022-07-24T11:46:33;9.90;;;6.95;;
55706;SDS011;41608;45.384;20.394;2022-07-24T11:49:03;10.93;;;5.95;;
55706;SDS011;41608;45.384;20.394;2022-07-24T11:51:29;7.68;;;6.05;;
55706;SDS011;41608;45.384;20.394;2022-07-24T11:53:56;9.35;;;6.55;;
55706;SDS011;41608;45.384;20.394;2022-07-24T11:56:22;8.23;;;5.72;;
55706;SDS011;41608;45.384;20.394;2022-07-24T11:58:49;9.05;;;5.68;;
55706;SDS011;41608;45.384;20.394;2022-07-24T12:01:19;7.47;;;6.03;;
55706;SDS011;41608;45.384;20.394;2022-07-24T12:03:49;6.35;;;5.75;;
55706;SDS011;41608;45.384;20.394;2022-07-24T12:06:15;7.00;;;5.40;;
55706;SDS011;41608;45.384;20.394;2022-07-24T12:08:41;7.35;;;6.22;;
55706;SDS011;41608;45.384;20.394;2022-07-24T12:11:07;6.55;;;5.88;;
55706;SDS011;41608;45.384;20.394;2022-07-24T12:13:33;7.93;;;6.15;;
55706;SDS011;41608;45.384;20.394;2022-07-24T12:16:00;6.78;;;6.03;;
55706;SDS011;41608;45.384;20.394;2022-07-24T12:18:26;9.25;;;5.35;;
55706;SDS011;41608;45.384;20.394;2022-07-24T12:20:58;11.30;;;6.70;;
55706;SDS011;41608;45.384;20.394;2022-07-24T12:23:24;6.85;;;4.72;;
55706;SDS011;41608;45.384;20.394;2022-07-24T12:25:51;8.15;;;5.50;;
55706;SDS011;41608;45.384;20.394;2022-07-24T12:28:18;9.57;;;5.68;;
55706;SDS011;41608;45.384;20.394;2022-07-24T12:30:45;13.30;;;5.38;;
55706;SDS011;41608;45.384;20.394;2022-07-24T12:38:34;6.38;;;4.88;;
55706;SDS011;41608;45.384;20.394;2022-07-24T12:41:01;6.07;;;4.78;;
55706;SDS011;41608;45.384;20.394;2022-07-24T12:43:27;7.13;;;4.85;;
55706;SDS011;41608;45.384;20.394;2022-07-24T12:46:09;8.98;;;5.22;;
55706;SDS011;41608;45.384;20.394;2022-07-24T12:48:36;6.97;;;5.82;;
55706;SDS011;41608;45.384;20.394;2022-07-24T12:51:09;7.03;;;5.97;;
55706;SDS011;41608;45.384;20.394;2022-07-24T12:53:40;8.55;;;6.25;;
55706;SDS011;41608;45.384;20.394;2022-07-24T12:56:08;7.50;;;6.70;;
55706;SDS011;41608;45.384;20.394;2022-07-24T12:58:54;7.68;;;6.30;;
55706;SDS011;41608;45.384;20.394;2022-07-24T13:01:21;7.82;;;6.70;;
55706;SDS011;41608;45.384;20.394;2022-07-24T13:03:54;8.60;;;6.15;;
55706;SDS011;41608;45.384;20.394;2022-07-24T13:06:38;16.45;;;6.70;;
55706;SDS011;41608;45.384;20.394;2022-07-24T13:09:04;9.10;;;6.60;;
55706;SDS011;41608;45.384;20.394;2022-07-24T13:11:31;8.82;;;7.22;;
55706;SDS011;41608;45.384;20.394;2022-07-24T13:13:57;7.72;;;6.70;;
55706;SDS011;41608;45.384;20.394;2022-07-24T13:16:26;8.80;;;6.30;;
55706;SDS011;41608;45.384;20.394;2022-07-24T13:18:54;8.65;;;7.32;;
55706;SDS011;41608;45.384;20.394;2022-07-24T13:21:20;10.68;;;7.43;;
55706;SDS011;41608;45.384;20.394;2022-07-24T13:23:46;8.50;;;7.57;;
55706;SDS011;41608;45.384;20.394;2022-07-24T13:26:12;7.95;;;6.47;;
55706;SDS011;41608;45.384;20.394;2022-07-24T13:28:38;7.10;;;5.75;;
55706;SDS011;41608;45.384;20.394;2022-07-24T13:31:05;11.48;;;7.65;;
55706;SDS011;41608;45.384;20.394;2022-07-24T13:33:31;7.70;;;6.22;;
55706;SDS011;41608;45.384;20.394;2022-07-24T13:35:57;9.55;;;6.32;;
55706;SDS011;41608;45.384;20.394;2022-07-24T13:38:23;9.18;;;6.45;;
55706;SDS011;41608;45.384;20.394;2022-07-24T13:40:49;8.38;;;6.68;;
55706;SDS011;41608;45.384;20.394;2022-07-24T13:43:16;7.20;;;6.35;;
55706;SDS011;41608;45.384;20.394;2022-07-24T13:45:42;6.60;;;5.68;;
55706;SDS011;41608;45.384;20.394;2022-07-24T13:48:08;7.35;;;5.97;;
55706;SDS011;41608;45.384;20.394;2022-07-24T13:50:34;6.57;;;5.57;;
55706;SDS011;41608;45.384;20.394;2022-07-24T13:53:00;7.03;;;6.32;;
55706;SDS011;41608;45.384;20.394;2022-07-24T13:55:26;9.68;;;6.20;;
55706;SDS011;41608;45.384;20.394;2022-07-24T13:57:52;7.05;;;5.97;;
55706;SDS011;41608;45.384;20.394;2022-07-24T14:00:18;7.00;;;6.30;;
55706;SDS011;41608;45.384;20.394;2022-07-24T14:02:44;9.50;;;6.35;;
55706;SDS011;41608;45.384;20.394;2022-07-24T14:05:10;8.18;;;6.68;;
55706;SDS011;41608;45.384;20.394;2022-07-24T14:07:36;7.35;;;5.90;;
55706;SDS011;41608;45.384;20.394;2022-07-24T14:10:02;9.23;;;7.03;;
55706;SDS011;41608;45.384;20.394;2022-07-24T14:12:29;8.93;;;6.97;;
55706;SDS011;41608;45.384;20.394;2022-07-24T14:14:55;7.15;;;6.38;;
55706;SDS011;41608;45.384;20.394;2022-07-24T14:17:21;7.95;;;6.18;;
55706;SDS011;41608;45.384;20.394;2022-07-24T14:19:47;7.22;;;5.75;;
55706;SDS011;41608;45.384;20.394;2022-07-24T14:22:13;8.60;;;6.53;;
55706;SDS011;41608;45.384;20.394;2022-07-24T14:24:42;12.93;;;6.85;;
55706;SDS011;41608;45.384;20.394;2022-07-24T14:27:08;9.15;;;7.00;;
55706;SDS011;41608;45.384;20.394;2022-07-24T14:29:34;12.32;;;7.63;;
55706;SDS011;41608;45.384;20.394;2022-07-24T14:32:00;11.32;;;7.32;;
55706;SDS011;41608;45.384;20.394;2022-07-24T14:34:26;8.20;;;7.25;;
55706;SDS011;41608;45.384;20.394;2022-07-24T14:36:52;8.18;;;6.95;;
55706;SDS011;41608;45.384;20.394;2022-07-24T14:39:18;10.25;;;7.75;;
55706;SDS011;41608;45.384;20.394;2022-07-24T14:41:44;10.57;;;6.53;;
55706;SDS011;41608;45.384;20.394;2022-07-24T14:44:10;7.70;;;6.90;;
55706;SDS011;41608;45.384;20.394;2022-07-24T14:46:37;8.80;;;6.95;;
55706;SDS011;41608;45.384;20.394;2022-07-24T14:49:03;10.10;;;7.15;;
55706;SDS011;41608;45.384;20.394;2022-07-24T14:51:29;8.63;;;6.50;;
55706;SDS011;41608;45.384;20.394;2022-07-24T14:53:57;9.68;;;7.40;;
55706;SDS011;41608;45.384;20.394;2022-07-24T14:56:23;8.32;;;7.20;;